Briarcliff, Georgia
Current Conditions -  °F | °C
As of 1:53 PM on Friday 21 Nov 2014 (Local Time) from KPDK Reporting Station
Clear Clear  
Wind Chill: 62°   Ceiling: Unl
Heat Index: 62°   Visibility: 10mi
Dew Point: 32°   Wind: 6mph
Humidity: 32%   Direction: NA
Pressure: 30.35"   Gusts: NA
Location:  33.8247°N, 84.323°W
Report Text: KPDK 211853Z VRB05KT 10SM CLR 17/00 A3035 RMK AO2 SLP285 T01670000
Loading
Personal Weather Stations






























Interactive Weather Map New forecast layout! Learn more

10-Day Weather Forecast

Advertisements
Track Severe Weather on mobile